createdAt,value
2022-08-11T00:00:40.282Z,19.93
2022-08-11T00:03:50.807Z,20.00
2022-08-11T00:06:56.209Z,19.86
2022-08-11T00:10:00.501Z,19.86
2022-08-11T00:13:08.156Z,19.86
2022-08-11T00:16:18.706Z,19.69
2022-08-11T00:20:13.259Z,19.76
2022-08-11T00:22:50.966Z,19.72
2022-08-11T00:25:55.746Z,19.69
2022-08-11T00:29:12.165Z,19.69
2022-08-11T00:32:16.358Z,19.73
2022-08-11T00:35:55.380Z,19.71
2022-08-11T00:38:52.907Z,19.61
2022-08-11T00:42:11.905Z,19.51
2022-08-11T00:45:35.339Z,19.34
2022-08-11T00:48:59.336Z,19.28
2022-08-11T00:52:17.691Z,19.22
2022-08-11T00:55:27.211Z,19.17
2022-08-11T00:59:34.151Z,19.21
2022-08-11T01:02:39.516Z,19.11
2022-08-11T01:06:00.584Z,19.06
2022-08-11T01:09:22.049Z,18.99
2022-08-11T01:12:41.482Z,18.97
2022-08-11T01:16:10.140Z,18.91
2022-08-11T01:20:44.864Z,18.87
2022-08-11T01:23:17.573Z,18.93
2022-08-11T01:26:42.757Z,18.81
2022-08-11T01:30:10.627Z,18.71
2022-08-11T01:33:22.715Z,18.66
2022-08-11T01:36:57.087Z,18.66
2022-08-11T01:40:09.325Z,18.71
2022-08-11T01:43:51.988Z,18.66
2022-08-11T01:47:37.302Z,18.60
2022-08-11T01:50:43.910Z,18.67
2022-08-11T01:53:57.714Z,18.63
2022-08-11T01:57:07.102Z,18.59
2022-08-11T02:00:20.897Z,18.56
2022-08-11T02:03:55.201Z,18.59
2022-08-11T02:07:10.358Z,18.67
2022-08-11T02:10:38.486Z,18.73
2022-08-11T02:13:52.657Z,18.69
2022-08-11T02:17:21.750Z,18.73
2022-08-11T02:20:47.062Z,18.66
2022-08-11T02:24:04.191Z,18.63
2022-08-11T02:27:18.718Z,18.50
2022-08-11T02:30:27.343Z,18.47
2022-08-11T02:33:36.527Z,18.39
2022-08-11T02:36:52.606Z,18.40
2022-08-11T02:39:59.088Z,18.32
2022-08-11T02:43:28.763Z,18.26
2022-08-11T02:47:09.967Z,18.18
2022-08-11T02:50:25.639Z,18.22
2022-08-11T02:53:58.260Z,18.32
2022-08-11T02:57:16.215Z,18.35
2022-08-11T03:00:20.726Z,18.36
2022-08-11T03:03:36.595Z,18.33
2022-08-11T03:06:50.332Z,18.26
2022-08-11T03:10:13.805Z,18.30
2022-08-11T03:13:44.751Z,18.43
2022-08-11T03:17:06.704Z,18.35
2022-08-11T03:20:23.937Z,18.30
2022-08-11T03:23:34.392Z,18.30
2022-08-11T03:26:56.407Z,18.28
2022-08-11T03:30:16.466Z,18.32
2022-08-11T03:33:52.489Z,18.32
2022-08-11T03:37:34.542Z,18.18
2022-08-11T03:42:03.579Z,18.09
2022-08-11T03:45:16.775Z,18.02
2022-08-11T03:48:29.095Z,18.01
2022-08-11T03:52:08.106Z,17.88
2022-08-11T03:55:33.993Z,17.94
2022-08-11T03:59:08.145Z,17.92
2022-08-11T04:02:35.517Z,17.85
2022-08-11T04:06:02.608Z,17.85
2022-08-11T04:09:25.327Z,17.74
2022-08-11T04:13:20.852Z,17.67
2022-08-11T04:17:04.565Z,17.64
2022-08-11T04:20:26.654Z,17.57
2022-08-11T04:24:36.061Z,17.55
2022-08-11T04:27:39.170Z,17.60
2022-08-11T04:31:44.125Z,17.65
2022-08-11T04:35:19.567Z,17.63
2022-08-11T04:38:33.943Z,17.61
2022-08-11T04:42:12.931Z,17.55
2022-08-11T04:45:46.551Z,17.57
2022-08-11T04:49:46.386Z,17.55
2022-08-11T04:53:54.755Z,17.51
2022-08-11T04:57:25.747Z,17.61
2022-08-11T05:00:55.543Z,17.65
2022-08-11T05:04:57.037Z,17.65
2022-08-11T05:08:05.986Z,17.78
2022-08-11T05:11:36.162Z,17.84
2022-08-11T05:15:06.982Z,17.98
2022-08-11T05:18:41.642Z,18.08
2022-08-11T05:22:11.795Z,18.19
2022-08-11T05:26:44.212Z,18.26
2022-08-11T05:30:00.591Z,18.42
2022-08-11T05:33:26.768Z,18.45
2022-08-11T05:36:45.207Z,18.55
2022-08-11T05:40:14.348Z,18.69
2022-08-11T05:43:36.660Z,19.08
2022-08-11T05:47:02.437Z,19.39
2022-08-11T05:50:31.184Z,19.72
2022-08-11T05:54:28.705Z,20.34
2022-08-11T05:57:45.450Z,20.87
2022-08-11T06:00:56.180Z,21.27
2022-08-11T06:04:14.805Z,21.55
2022-08-11T06:07:18.817Z,21.82
2022-08-11T06:10:33.958Z,22.06
2022-08-11T06:13:44.972Z,22.24
2022-08-11T06:16:51.065Z,22.40
2022-08-11T06:20:07.472Z,22.61
2022-08-11T06:23:11.703Z,22.88
2022-08-11T06:26:15.684Z,23.11
2022-08-11T06:29:20.089Z,23.33
2022-08-11T06:32:55.873Z,23.56
2022-08-11T06:36:14.036Z,23.74
2022-08-11T06:39:43.827Z,23.99
2022-08-11T06:42:54.003Z,24.09
2022-08-11T06:46:03.527Z,24.25
2022-08-11T06:49:28.078Z,24.47
2022-08-11T06:52:37.058Z,24.68
2022-08-11T06:56:01.007Z,24.81
2022-08-11T06:59:23.241Z,25.05
2022-08-11T07:02:37.032Z,25.18
2022-08-11T07:05:54.780Z,25.40
2022-08-11T07:09:19.573Z,25.78
2022-08-11T07:12:51.029Z,25.33
2022-08-11T07:16:12.694Z,25.40
2022-08-11T07:19:44.324Z,25.77
2022-08-11T07:23:15.974Z,26.16
2022-08-11T07:26:41.005Z,26.27
2022-08-11T07:29:48.398Z,26.51
2022-08-11T07:32:54.897Z,26.63
2022-08-11T07:36:01.089Z,26.98
2022-08-11T07:39:04.644Z,27.06
2022-08-11T07:42:11.339Z,27.20
2022-08-11T07:45:33.313Z,27.42
2022-08-11T07:48:55.235Z,27.81
2022-08-11T07:52:17.495Z,27.95
2022-08-11T07:55:48.972Z,28.09
2022-08-11T07:59:08.409Z,28.14
2022-08-11T08:02:32.008Z,28.44
2022-08-11T08:05:54.115Z,28.76
2022-08-11T08:09:16.917Z,29.07
2022-08-11T08:12:44.752Z,29.17
2022-08-11T08:16:06.849Z,28.96
2022-08-11T08:19:16.247Z,29.35
2022-08-11T08:22:39.211Z,29.92
2022-08-11T08:25:46.519Z,30.05
2022-08-11T08:28:49.799Z,30.06
2022-08-11T08:31:56.810Z,30.19
2022-08-11T08:35:00.472Z,30.56
2022-08-11T08:38:04.847Z,30.88
2022-08-11T08:41:08.992Z,30.87
2022-08-11T08:44:37.845Z,31.11
2022-08-11T08:47:48.773Z,31.04
2022-08-11T08:51:24.109Z,31.17
2022-08-11T08:54:38.153Z,31.57
2022-08-11T08:57:43.916Z,31.77
2022-08-11T09:00:50.747Z,32.16
2022-08-11T09:04:06.580Z,32.28
2022-08-11T09:07:18.448Z,32.52
2022-08-11T09:10:22.847Z,33.08
2022-08-11T09:13:27.801Z,32.52
2022-08-11T09:16:31.144Z,31.95
2022-08-11T09:19:34.590Z,31.68
2022-08-11T09:23:35.185Z,32.08
2022-08-11T09:26:41.887Z,32.23
2022-08-11T09:29:46.031Z,32.28
2022-08-11T09:33:00.488Z,32.32
2022-08-11T09:36:25.170Z,32.93
2022-08-11T09:39:57.480Z,32.53
2022-08-11T09:43:25.843Z,32.52
2022-08-11T09:46:30.490Z,32.64
2022-08-11T09:49:34.037Z,33.15
2022-08-11T09:52:52.227Z,33.13
2022-08-11T09:56:21.950Z,33.31
2022-08-11T09:59:25.181Z,33.04
2022-08-11T10:02:30.461Z,32.90
2022-08-11T10:05:53.049Z,33.18
2022-08-11T10:08:56.498Z,33.95
2022-08-11T10:12:03.168Z,33.94
2022-08-11T10:15:29.370Z,33.41
2022-08-11T10:18:51.771Z,33.58
2022-08-11T10:22:14.020Z,33.47
2022-08-11T10:25:35.679Z,33.86
2022-08-11T10:28:55.967Z,34.10
2022-08-11T10:32:21.932Z,34.19
2022-08-11T10:35:32.734Z,33.86
2022-08-11T10:38:37.006Z,33.91
2022-08-11T10:42:08.475Z,34.01
2022-08-11T10:45:33.782Z,34.09
2022-08-11T10:48:39.240Z,34.05
2022-08-11T10:52:01.471Z,33.71
2022-08-11T10:55:23.617Z,34.25
2022-08-11T10:58:45.539Z,33.68
2022-08-11T11:01:50.537Z,34.50
2022-08-11T11:05:09.321Z,34.56
2022-08-11T11:08:36.785Z,35.75
2022-08-11T11:12:06.029Z,34.76
2022-08-11T11:15:29.362Z,34.70
2022-08-11T11:18:36.783Z,35.21
2022-08-11T11:21:43.073Z,36.03
2022-08-11T11:25:08.499Z,35.96
2022-08-11T11:28:39.448Z,35.47
2022-08-11T11:32:27.770Z,35.82
2022-08-11T11:36:02.292Z,35.93
2022-08-11T11:39:05.893Z,36.44
2022-08-11T11:42:10.572Z,37.03
2022-08-11T11:45:22.810Z,36.66
2022-08-11T11:48:29.191Z,35.86
2022-08-11T11:51:33.266Z,36.33
2022-08-11T11:54:39.201Z,35.62
2022-08-11T11:58:02.708Z,35.93
2022-08-11T12:01:21.099Z,36.28
2022-08-11T12:04:25.994Z,35.68
2022-08-11T12:08:05.018Z,35.03
2022-08-11T12:11:32.897Z,35.01
2022-08-11T12:14:37.228Z,35.40
2022-08-11T12:17:40.751Z,35.54
2022-08-11T12:20:45.404Z,34.84
2022-08-11T12:24:07.713Z,34.22
2022-08-11T12:27:24.862Z,34.46
2022-08-11T12:30:29.589Z,34.87
2022-08-11T12:33:35.162Z,35.71
2022-08-11T12:36:49.229Z,34.67
2022-08-11T12:40:42.865Z,34.33
2022-08-11T12:44:04.409Z,34.32
2022-08-11T12:47:09.369Z,34.55
2022-08-11T12:50:30.824Z,35.18
2022-08-11T12:53:37.702Z,35.54
2022-08-11T12:57:13.434Z,35.52
2022-08-11T13:00:36.982Z,35.47
2022-08-11T13:03:58.777Z,34.87
2022-08-11T13:07:03.236Z,34.66
2022-08-11T13:10:11.197Z,34.61
2022-08-11T13:13:54.301Z,34.47
2022-08-11T13:17:05.891Z,34.69
2022-08-11T13:20:13.709Z,34.83
2022-08-11T13:23:17.016Z,34.61
2022-08-11T13:26:24.931Z,34.57
2022-08-11T13:29:47.076Z,34.94
2022-08-11T13:32:51.830Z,34.99
2022-08-11T13:35:55.965Z,35.10
2022-08-11T13:38:59.964Z,35.14
2022-08-11T13:42:05.297Z,34.76
2022-08-11T13:45:09.468Z,35.33
2022-08-11T13:48:13.300Z,34.22
2022-08-11T13:51:35.532Z,33.64
2022-08-11T13:54:41.223Z,32.97
2022-08-11T13:58:08.206Z,32.32
2022-08-11T14:01:16.744Z,31.38
2022-08-11T14:04:39.552Z,30.45
2022-08-11T14:07:51.137Z,29.50
2022-08-11T14:12:19.950Z,29.14
2022-08-11T14:14:42.627Z,28.70
2022-08-11T14:17:52.275Z,28.60
2022-08-11T14:21:17.735Z,28.49
2022-08-11T14:24:22.035Z,28.18
2022-08-11T14:28:32.641Z,28.00
2022-08-11T14:31:01.244Z,27.88
2022-08-11T14:34:07.994Z,27.93
2022-08-11T14:37:19.613Z,27.74
2022-08-11T14:40:42.346Z,27.76
2022-08-11T14:44:14.427Z,27.61
2022-08-11T14:47:23.751Z,27.63
2022-08-11T14:50:31.295Z,27.51
2022-08-11T14:53:35.054Z,27.53
2022-08-11T14:56:38.864Z,27.46
2022-08-11T14:59:43.629Z,27.42
2022-08-11T15:03:11.137Z,27.32
2022-08-11T15:06:14.723Z,27.29
2022-08-11T15:09:18.853Z,27.26
2022-08-11T15:12:32.142Z,27.30
2022-08-11T15:15:55.979Z,27.16
2022-08-11T15:18:59.684Z,27.17
2022-08-11T15:22:24.885Z,27.23
2022-08-11T15:25:34.641Z,27.19
2022-08-11T15:29:01.482Z,27.14
2022-08-11T15:32:23.320Z,27.19
2022-08-11T15:35:47.749Z,27.06
2022-08-11T15:38:59.823Z,26.98
2022-08-11T15:42:33.801Z,26.83
2022-08-11T15:45:52.289Z,26.78
2022-08-11T15:49:00.901Z,26.72
2022-08-11T15:52:09.973Z,26.85
2022-08-11T15:55:15.482Z,26.88
2022-08-11T15:58:40.762Z,26.81
2022-08-11T16:02:04.354Z,26.78
2022-08-11T16:05:14.250Z,26.73
2022-08-11T16:08:40.683Z,26.67
2022-08-11T16:11:46.394Z,26.73
2022-08-11T16:15:20.159Z,26.79
2022-08-11T16:18:40.848Z,26.79
2022-08-11T16:21:45.740Z,26.96
2022-08-11T16:27:04.749Z,27.49
2022-08-11T16:28:15.402Z,28.24
2022-08-11T16:31:21.997Z,28.59
2022-08-11T16:34:46.420Z,28.66
2022-08-11T16:38:08.211Z,28.70
2022-08-11T16:41:14.195Z,28.79
2022-08-11T16:44:38.357Z,28.53
2022-08-11T16:48:03.414Z,28.07
2022-08-11T16:51:10.695Z,27.81
2022-08-11T16:54:14.524Z,27.78
2022-08-11T16:57:46.034Z,27.65
2022-08-11T17:00:51.466Z,27.58
2022-08-11T17:04:24.457Z,27.54
2022-08-11T17:07:57.066Z,27.50
2022-08-11T17:11:24.385Z,27.39
2022-08-11T17:14:43.471Z,27.33
2022-08-11T17:17:47.082Z,27.22
2022-08-11T17:20:50.452Z,27.16
2022-08-11T17:24:01.894Z,26.95
2022-08-11T17:27:09.225Z,26.82
2022-08-11T17:30:14.219Z,26.93
2022-08-11T17:33:37.404Z,26.90
2022-08-11T17:36:45.835Z,26.78
2022-08-11T17:39:50.750Z,26.68
2022-08-11T17:43:14.693Z,26.63
2022-08-11T17:46:38.148Z,26.47
2022-08-11T17:49:41.853Z,26.28
2022-08-11T17:53:05.715Z,26.24
2022-08-11T17:56:28.147Z,26.02
2022-08-11T17:59:52.017Z,25.83
2022-08-11T18:03:15.761Z,25.76
2022-08-11T18:06:20.018Z,25.69
2022-08-11T18:09:51.655Z,25.53
2022-08-11T18:13:15.542Z,25.53
2022-08-11T18:16:38.512Z,25.46
2022-08-11T18:20:01.036Z,25.33
2022-08-11T18:23:40.685Z,25.20
2022-08-11T18:27:10.987Z,25.11
2022-08-11T18:30:32.629Z,25.03
2022-08-11T18:34:08.605Z,24.93
2022-08-11T18:37:35.123Z,24.86
2022-08-11T18:41:02.125Z,24.78
2022-08-11T18:44:26.356Z,24.68
2022-08-11T18:47:48.957Z,24.60
2022-08-11T18:51:30.412Z,24.50
2022-08-11T18:55:05.451Z,24.38
2022-08-11T18:58:34.088Z,24.32
2022-08-11T19:01:58.094Z,24.18
2022-08-11T19:06:31.666Z,24.10
2022-08-11T19:09:17.592Z,23.99
2022-08-11T19:12:40.821Z,23.92
2022-08-11T19:16:05.485Z,23.90
2022-08-11T19:19:30.651Z,23.74
2022-08-11T19:22:54.837Z,23.67
2022-08-11T19:26:18.640Z,23.60
2022-08-11T19:30:04.643Z,23.63
2022-08-11T19:34:00.389Z,23.57
2022-08-11T19:37:08.096Z,23.60
2022-08-11T19:40:31.267Z,23.53
2022-08-11T19:43:55.331Z,23.57
2022-08-11T19:47:18.389Z,23.52
2022-08-11T19:50:40.158Z,23.50
2022-08-11T19:54:03.490Z,23.52
2022-08-11T19:57:26.041Z,23.46
2022-08-11T20:00:48.620Z,23.43
2022-08-11T20:04:10.732Z,23.38
2022-08-11T20:07:33.485Z,23.29
2022-08-11T20:10:56.491Z,23.29
2022-08-11T20:14:20.145Z,23.19
2022-08-11T20:17:44.794Z,23.14
2022-08-11T20:21:22.792Z,23.15
2022-08-11T20:24:53.708Z,23.09
2022-08-11T20:28:19.122Z,23.05
2022-08-11T20:31:42.334Z,23.05
2022-08-11T20:35:05.481Z,23.01
2022-08-11T20:38:28.968Z,22.88
2022-08-11T20:41:58.458Z,22.84
2022-08-11T20:45:25.554Z,22.81
2022-08-11T20:48:49.832Z,22.69
2022-08-11T20:52:11.895Z,22.65
2022-08-11T20:55:51.749Z,22.61
2022-08-11T20:59:22.006Z,22.58
2022-08-11T21:02:50.048Z,22.55
2022-08-11T21:06:13.389Z,22.39
2022-08-11T21:10:00.949Z,22.44
2022-08-11T21:13:26.534Z,22.34
2022-08-11T21:16:55.368Z,22.33
2022-08-11T21:20:23.442Z,22.32
2022-08-11T21:23:49.028Z,22.32
2022-08-11T21:27:16.114Z,22.34
2022-08-11T21:30:46.585Z,22.32
2022-08-11T21:34:09.161Z,22.20
2022-08-11T21:37:33.603Z,22.16
2022-08-11T21:41:00.240Z,22.09
2022-08-11T21:44:24.981Z,22.07
2022-08-11T21:47:49.617Z,22.04
2022-08-11T21:51:23.615Z,22.00
2022-08-11T21:54:46.425Z,21.99
2022-08-11T21:58:08.560Z,22.03
2022-08-11T22:01:34.437Z,21.97
2022-08-11T22:04:57.635Z,21.99
2022-08-11T22:08:20.885Z,22.00
2022-08-11T22:11:42.306Z,21.97
2022-08-11T22:15:04.962Z,21.94
2022-08-11T22:18:27.041Z,21.93
2022-08-11T22:22:02.661Z,21.99
2022-08-11T22:25:27.984Z,21.99
2022-08-11T22:29:00.449Z,21.93
2022-08-11T22:32:23.275Z,21.99
2022-08-11T22:35:46.224Z,21.90
2022-08-11T22:39:09.552Z,21.83
2022-08-11T22:42:33.725Z,21.75
2022-08-11T22:45:55.579Z,21.76
2022-08-11T22:49:17.759Z,21.69
2022-08-11T22:52:40.790Z,21.67
2022-08-11T22:56:03.417Z,21.72
2022-08-11T22:59:26.552Z,21.69
2022-08-11T23:02:49.193Z,21.72
2022-08-11T23:06:12.473Z,21.63
2022-08-11T23:09:35.498Z,21.60
2022-08-11T23:12:58.294Z,21.58
2022-08-11T23:16:20.814Z,21.53
2022-08-11T23:20:08.650Z,21.53
2022-08-11T23:23:26.500Z,21.53
2022-08-11T23:26:48.800Z,21.46
2022-08-11T23:30:18.947Z,21.41
2022-08-11T23:33:43.113Z,21.32
2022-08-11T23:37:07.030Z,21.34
2022-08-11T23:40:29.980Z,21.28
2022-08-11T23:43:51.929Z,21.32
2022-08-11T23:47:17.793Z,21.24
2022-08-11T23:50:41.559Z,21.01
2022-08-11T23:54:07.922Z,20.94
2022-08-11T23:57:31.014Z,20.95
